createdAt,value
2023-02-24T00:00:38.838Z,1015.34
2023-02-24T00:02:36.172Z,1015.39
2023-02-24T00:04:35.949Z,1015.39
2023-02-24T00:06:35.243Z,1015.35
2023-02-24T00:08:35.655Z,1015.35
2023-02-24T00:10:35.257Z,1015.27
2023-02-24T00:12:35.864Z,1015.27
2023-02-24T00:14:35.296Z,1015.29
2023-02-24T00:16:36.283Z,1015.29
2023-02-24T00:18:35.288Z,1015.23
2023-02-24T00:20:35.695Z,1015.23
2023-02-24T00:22:35.323Z,1015.17
2023-02-24T00:24:35.989Z,1015.17
2023-02-24T00:26:35.190Z,1015.02
2023-02-24T00:28:35.730Z,1015.02
2023-02-24T00:30:35.104Z,1015.04
2023-02-24T00:32:37.104Z,1015.04
2023-02-24T00:34:35.276Z,1014.96
2023-02-24T00:36:35.584Z,1014.96
2023-02-24T00:38:36.150Z,1014.9
2023-02-24T00:40:35.761Z,1014.9
2023-02-24T00:42:35.974Z,1014.86
2023-02-24T00:44:35.494Z,1014.86
2023-02-24T00:46:36.389Z,1014.88
2023-02-24T00:48:35.635Z,1014.88
2023-02-24T00:50:35.057Z,1014.75
2023-02-24T00:52:35.649Z,1014.75
2023-02-24T00:54:35.285Z,1014.69
2023-02-24T00:56:35.623Z,1014.69
2023-02-24T00:58:35.905Z,1014.61
2023-02-24T01:00:38.907Z,1014.61
2023-02-24T01:02:35.756Z,1014.58
2023-02-24T01:04:35.347Z,1014.58
2023-02-24T01:06:35.720Z,1014.49
2023-02-24T01:08:35.305Z,1014.49
2023-02-24T01:10:35.789Z,1014.46
2023-02-24T01:12:35.429Z,1014.46
2023-02-24T01:14:35.697Z,1014.36
2023-02-24T01:16:35.637Z,1014.36
2023-02-24T01:18:35.985Z,1014.3
2023-02-24T01:20:35.390Z,1014.3
2023-02-24T01:22:35.819Z,1014.15
2023-02-24T01:24:35.405Z,1014.15
2023-02-24T01:26:35.874Z,1014.14
2023-02-24T01:28:35.303Z,1014.14
2023-02-24T01:30:35.865Z,1014.06
2023-02-24T01:32:36.671Z,1014.06
2023-02-24T01:34:35.913Z,1014.02
2023-02-24T01:36:35.273Z,1014.02
2023-02-24T01:38:35.800Z,1013.88
2023-02-24T01:40:35.299Z,1013.88
2023-02-24T01:42:35.872Z,1013.78
2023-02-24T01:44:35.294Z,1013.78
2023-02-24T01:46:35.891Z,1013.75
2023-02-24T01:48:35.178Z,1013.75
2023-02-24T01:50:35.683Z,1013.67
2023-02-24T01:52:35.228Z,1013.67
2023-02-24T01:54:35.763Z,1013.61
2023-02-24T01:56:35.275Z,1013.61
2023-02-24T01:58:35.928Z,1013.51
2023-02-24T02:00:38.892Z,1013.51
2023-02-24T02:02:36.470Z,1013.51
2023-02-24T02:04:36.032Z,1013.51
2023-02-24T02:06:35.357Z,1013.46
2023-02-24T02:08:35.928Z,1013.46
2023-02-24T02:10:35.367Z,1013.42
2023-02-24T02:12:35.799Z,1013.46
2023-02-24T02:14:35.520Z,1013.46
2023-02-24T02:16:36.356Z,1013.32
2023-02-24T02:18:35.485Z,1013.32
2023-02-24T02:20:36.036Z,1013.23
2023-02-24T02:22:35.576Z,1013.23
2023-02-24T02:24:35.293Z,1013.35
2023-02-24T02:26:35.700Z,1013.35
2023-02-24T02:28:35.188Z,1013.23
2023-02-24T02:30:35.923Z,1013.23
2023-02-24T02:32:36.017Z,1013.29
2023-02-24T02:34:35.758Z,1013.29
2023-02-24T02:36:35.258Z,1013.17
2023-02-24T02:38:35.887Z,1013.17
2023-02-24T02:40:35.374Z,1013.11
2023-02-24T02:42:35.787Z,1013.11
2023-02-24T02:44:35.314Z,1013.15
2023-02-24T02:46:36.094Z,1013.15
2023-02-24T02:48:35.421Z,1013
2023-02-24T02:50:36.030Z,1013
2023-02-24T02:52:35.468Z,1012.88
2023-02-24T02:54:35.171Z,1012.88
2023-02-24T02:56:35.613Z,1012.94
2023-02-24T02:58:35.137Z,1012.94
2023-02-24T03:00:38.676Z,1012.89
2023-02-24T03:02:35.743Z,1012.89
2023-02-24T03:04:35.309Z,1012.67
2023-02-24T03:06:35.680Z,1012.67
2023-02-24T03:08:35.299Z,1012.62
2023-02-24T03:10:35.211Z,1012.62
2023-02-24T03:12:35.801Z,1012.57
2023-02-24T03:14:35.281Z,1012.57
2023-02-24T03:16:35.938Z,1012.55
2023-02-24T03:18:35.154Z,1012.55
2023-02-24T03:20:35.792Z,1012.5
2023-02-24T03:22:35.403Z,1012.5
2023-02-24T03:24:35.967Z,1012.39
2023-02-24T03:26:35.400Z,1012.39
2023-02-24T03:28:35.882Z,1012.15
2023-02-24T03:30:35.478Z,1012.15
2023-02-24T03:32:36.635Z,1012.2
2023-02-24T03:34:35.316Z,1012.2
2023-02-24T03:36:35.903Z,1012.17
2023-02-24T03:38:35.441Z,1012.17
2023-02-24T03:40:36.294Z,1012.09
2023-02-24T03:42:35.494Z,1012.09
2023-02-24T03:44:36.100Z,1011.98
2023-02-24T03:46:35.956Z,1011.98
2023-02-24T03:48:35.150Z,1012.04
2023-02-24T03:50:35.863Z,1012.04
2023-02-24T03:52:35.509Z,1011.95
2023-02-24T03:54:36.030Z,1011.95
2023-02-24T03:56:35.375Z,1011.94
2023-02-24T03:58:35.094Z,1011.94
2023-02-24T04:00:38.594Z,1011.88
2023-02-24T04:02:35.974Z,1011.88
2023-02-24T04:04:35.300Z,1011.89
2023-02-24T04:06:35.702Z,1011.89
2023-02-24T04:08:35.368Z,1011.77
2023-02-24T04:10:35.945Z,1011.77
2023-02-24T04:12:35.648Z,1011.83
2023-02-24T04:14:35.859Z,1011.83
2023-02-24T04:16:35.521Z,1011.72
2023-02-24T04:18:35.865Z,1011.72
2023-02-24T04:20:35.344Z,1011.67
2023-02-24T04:22:36.090Z,1011.67
2023-02-24T04:24:35.512Z,1011.67
2023-02-24T04:26:36.578Z,1011.67
2023-02-24T04:28:35.421Z,1011.49
2023-02-24T04:30:35.421Z,1011.49
2023-02-24T04:32:36.653Z,1011.47
2023-02-24T04:34:35.204Z,1011.47
2023-02-24T04:36:35.782Z,1011.35
2023-02-24T04:38:35.370Z,1011.35
2023-02-24T04:40:35.987Z,1011.29
2023-02-24T04:42:35.665Z,1011.29
2023-02-24T04:44:35.957Z,1011.19
2023-02-24T04:46:35.674Z,1011.19
2023-02-24T04:48:36.033Z,1011.24
2023-02-24T04:50:35.501Z,1011.24
2023-02-24T04:52:36.073Z,1011.08
2023-02-24T04:54:35.672Z,1011.08
2023-02-24T04:56:35.899Z,1011.11
2023-02-24T04:58:35.402Z,1011.11
2023-02-24T05:00:39.533Z,1011.09
2023-02-24T05:02:35.524Z,1011.09
2023-02-24T05:04:36.257Z,1011.02
2023-02-24T05:06:35.099Z,1011.02
2023-02-24T05:08:35.668Z,1010.89
2023-02-24T05:10:35.784Z,1010.89
2023-02-24T05:12:35.311Z,1010.92
2023-02-24T05:14:35.636Z,1010.92
2023-02-24T05:16:35.592Z,1010.87
2023-02-24T05:18:35.761Z,1010.87
2023-02-24T05:20:35.284Z,1010.9
2023-02-24T05:22:35.566Z,1010.9
2023-02-24T05:24:35.369Z,1010.65
2023-02-24T05:26:35.865Z,1010.65
2023-02-24T05:28:35.309Z,1010.58
2023-02-24T05:30:35.957Z,1010.58
2023-02-24T05:32:36.034Z,1010.54
2023-02-24T05:34:35.721Z,1010.53
2023-02-24T05:36:35.353Z,1010.53
2023-02-24T05:38:35.723Z,1010.46
2023-02-24T05:40:35.236Z,1010.46
2023-02-24T05:42:35.722Z,1010.33
2023-02-24T05:44:35.301Z,1010.33
2023-02-24T05:46:35.992Z,1010.31
2023-02-24T05:48:35.221Z,1010.31
2023-02-24T05:50:35.727Z,1010.26
2023-02-24T05:52:35.257Z,1010.26
2023-02-24T05:54:35.855Z,1010.21
2023-02-24T05:56:35.465Z,1010.21
2023-02-24T05:58:35.883Z,1010.05
2023-02-24T06:00:40.068Z,1010.05
2023-02-24T06:02:36.010Z,1009.95
2023-02-24T06:04:35.196Z,1009.95
2023-02-24T06:06:35.800Z,1009.94
2023-02-24T06:08:35.318Z,1009.94
2023-02-24T06:10:35.993Z,1009.91
2023-02-24T06:12:35.807Z,1009.91
2023-02-24T06:14:36.033Z,1009.73
2023-02-24T06:16:35.825Z,1009.73
2023-02-24T06:18:36.152Z,1009.82
2023-02-24T06:20:35.937Z,1009.82
2023-02-24T06:22:35.648Z,1009.63
2023-02-24T06:24:35.867Z,1009.63
2023-02-24T06:26:35.522Z,1009.55
2023-02-24T06:28:36.012Z,1009.55
2023-02-24T06:30:35.642Z,1009.62
2023-02-24T06:32:36.807Z,1009.62
2023-02-24T06:34:35.461Z,1009.52
2023-02-24T06:36:36.026Z,1009.52
2023-02-24T06:38:35.496Z,1009.5
2023-02-24T06:40:35.974Z,1009.5
2023-02-24T06:42:35.502Z,1009.34
2023-02-24T06:44:36.012Z,1009.34
2023-02-24T06:46:35.905Z,1009.33
2023-02-24T06:48:35.058Z,1009.33
2023-02-24T06:50:35.775Z,1009.24
2023-02-24T06:52:35.224Z,1009.24
2023-02-24T06:54:35.893Z,1009.37
2023-02-24T06:56:35.163Z,1009.37
2023-02-24T06:58:35.785Z,1009.31
2023-02-24T07:00:35.223Z,1009.31
2023-02-24T07:02:36.165Z,1009.24
2023-02-24T07:04:39.173Z,1009.24
2023-02-24T07:06:35.695Z,1009.18
2023-02-24T07:08:35.269Z,1009.18
2023-02-24T07:10:35.726Z,1009.12
2023-02-24T07:12:35.406Z,1009.12
2023-02-24T07:14:35.702Z,1008.96
2023-02-24T07:16:36.139Z,1008.96
2023-02-24T07:18:35.352Z,1009.05
2023-02-24T07:20:35.741Z,1009.05
2023-02-24T07:22:35.429Z,1008.98
2023-02-24T07:24:35.799Z,1008.98
2023-02-24T07:26:35.297Z,1008.83
2023-02-24T07:28:35.933Z,1008.83
2023-02-24T07:30:35.575Z,1008.92
2023-02-24T07:32:36.480Z,1008.92
2023-02-24T07:34:35.515Z,1008.99
2023-02-24T07:36:36.026Z,1008.99
2023-02-24T07:38:35.547Z,1008.9
2023-02-24T07:40:36.026Z,1008.9
2023-02-24T07:42:35.661Z,1008.83
2023-02-24T07:44:35.090Z,1008.83
2023-02-24T07:46:35.961Z,1008.73
2023-02-24T07:48:35.972Z,1008.73
2023-02-24T07:50:35.416Z,1008.78
2023-02-24T07:52:35.959Z,1008.78
2023-02-24T07:54:35.329Z,1008.69
2023-02-24T07:56:35.847Z,1008.69
2023-02-24T07:58:35.357Z,1008.69
2023-02-24T08:00:38.747Z,1008.69
2023-02-24T08:02:35.411Z,1008.8
2023-02-24T08:04:35.563Z,1008.8
2023-02-24T08:06:35.991Z,1008.61
2023-02-24T08:08:35.582Z,1008.61
2023-02-24T08:10:36.074Z,1008.69
2023-02-24T08:12:35.559Z,1008.69
2023-02-24T08:14:36.019Z,1008.59
2023-02-24T08:16:35.491Z,1008.59
2023-02-24T08:18:36.064Z,1008.56
2023-02-24T08:20:36.231Z,1008.56
2023-02-24T08:22:36.123Z,1008.49
2023-02-24T08:24:36.785Z,1008.49
2023-02-24T08:26:36.200Z,1008.37
2023-02-24T08:28:42.501Z,1008.37
2023-02-24T08:30:36.169Z,1008.42
2023-02-24T08:32:36.395Z,1008.42
2023-02-24T08:34:35.226Z,1008.27
2023-02-24T08:36:36.583Z,1008.27
2023-02-24T08:38:37.886Z,1008.23
2023-02-24T08:40:35.773Z,1008.23
2023-02-24T08:42:35.365Z,1008.26
2023-02-24T08:44:35.713Z,1008.26
2023-02-24T08:46:36.659Z,1008.19
2023-02-24T08:48:35.652Z,1008.19
2023-02-24T08:50:35.288Z,1008.09
2023-02-24T08:52:35.657Z,1008.09
2023-02-24T08:54:35.075Z,1008.08
2023-02-24T08:56:36.039Z,1007.9
2023-02-24T08:58:36.033Z,1007.9
2023-02-24T09:00:38.870Z,1007.97
2023-02-24T09:02:38.901Z,1007.97
2023-02-24T09:04:36.052Z,1007.86
2023-02-24T09:06:35.312Z,1007.86
2023-02-24T09:08:35.855Z,1007.86
2023-02-24T09:10:35.495Z,1007.86
2023-02-24T09:12:36.216Z,1007.81
2023-02-24T09:14:49.526Z,1007.81
2023-02-24T09:16:36.309Z,1007.75
2023-02-24T09:18:35.509Z,1007.75
2023-02-24T09:20:36.243Z,1007.72
2023-02-24T09:22:44.473Z,1007.72
2023-02-24T09:24:39.144Z,1007.47
2023-02-24T09:26:35.518Z,1007.47
2023-02-24T09:28:36.491Z,1007.61
2023-02-24T09:30:35.952Z,1007.61
2023-02-24T09:32:36.731Z,1007.44
2023-02-24T09:34:35.701Z,1007.44
2023-02-24T09:36:36.149Z,1007.49
2023-02-24T09:38:35.682Z,1007.49
2023-02-24T09:40:35.250Z,1007.52
2023-02-24T09:42:37.220Z,1007.52
2023-02-24T09:44:35.344Z,1007.37
2023-02-24T09:46:36.800Z,1007.37
2023-02-24T09:48:35.387Z,1007.28
2023-02-24T09:51:10.748Z,1007.28
2023-02-24T09:52:35.587Z,1007.31
2023-02-24T09:54:35.427Z,1007.31
2023-02-24T09:56:35.978Z,1007.23
2023-02-24T09:58:44.265Z,1007.23
2023-02-24T10:00:38.596Z,1007.21
2023-02-24T10:02:36.912Z,1007.21
2023-02-24T10:04:45.816Z,1007.22
2023-02-24T10:06:35.994Z,1007.22
2023-02-24T10:08:35.328Z,1007.25
2023-02-24T10:10:35.919Z,1007.25
2023-02-24T10:12:35.441Z,1007.06
2023-02-24T10:14:51.251Z,1007.06
2023-02-24T10:16:40.760Z,1007.09
2023-02-24T10:18:35.955Z,1007.09
2023-02-24T10:20:35.428Z,1006.91
2023-02-24T10:22:35.833Z,1006.91
2023-02-24T10:24:35.418Z,1006.91
2023-02-24T10:26:45.475Z,1006.91
2023-02-24T10:28:35.351Z,1006.93
2023-02-24T10:30:36.311Z,1006.93
2023-02-24T10:32:36.323Z,1006.78
2023-02-24T10:34:36.200Z,1006.78
2023-02-24T10:36:35.981Z,1006.87
2023-02-24T10:38:35.877Z,1006.87
2023-02-24T10:40:35.434Z,1006.78
2023-02-24T10:42:36.116Z,1006.78
2023-02-24T10:44:35.554Z,1006.88
2023-02-24T10:46:51.211Z,1006.88
2023-02-24T10:48:52.251Z,1006.77
2023-02-24T10:50:37.494Z,1006.77
2023-02-24T10:52:35.172Z,1006.81
2023-02-24T10:54:35.669Z,1006.81
2023-02-24T10:56:35.565Z,1006.85
2023-02-24T10:58:35.809Z,1006.85
2023-02-24T11:00:39.459Z,1006.89
2023-02-24T11:02:35.492Z,1006.89
2023-02-24T11:04:35.837Z,1006.93
2023-02-24T11:06:35.280Z,1006.93
2023-02-24T11:08:35.797Z,1006.9
2023-02-24T11:10:35.232Z,1006.9
2023-02-24T11:12:35.730Z,1006.74
2023-02-24T11:14:35.103Z,1006.74
2023-02-24T11:16:35.815Z,1006.71
2023-02-24T11:18:36.124Z,1006.71
2023-02-24T11:20:47.782Z,1006.75
2023-02-24T11:22:35.826Z,1006.75
2023-02-24T11:24:35.392Z,1006.63
2023-02-24T11:26:35.776Z,1006.63
2023-02-24T11:28:36.108Z,1006.57
2023-02-24T11:30:35.709Z,1006.57
2023-02-24T11:32:38.582Z,1006.47
2023-02-24T11:34:35.507Z,1006.47
2023-02-24T11:36:35.839Z,1006.52
2023-02-24T11:38:35.291Z,1006.52
2023-02-24T11:40:36.228Z,1006.57
2023-02-24T11:42:35.544Z,1006.57
2023-02-24T11:44:38.180Z,1006.58
2023-02-24T11:46:35.780Z,1006.58
2023-02-24T11:48:36.125Z,1006.54
2023-02-24T11:50:38.752Z,1006.54
2023-02-24T11:52:36.042Z,1006.29
2023-02-24T11:54:35.602Z,1006.29
2023-02-24T11:56:36.184Z,1006.29
2023-02-24T11:58:35.633Z,1006.29
2023-02-24T12:00:38.714Z,1006.37
2023-02-24T12:02:35.650Z,1006.37
2023-02-24T12:04:35.945Z,1006.47
2023-02-24T12:06:35.475Z,1006.47
2023-02-24T12:08:35.730Z,1006.28
2023-02-24T12:10:50.037Z,1006.31
2023-02-24T12:12:36.331Z,1006.31
2023-02-24T12:14:35.207Z,1006.31
2023-02-24T12:16:36.126Z,1006.1
2023-02-24T12:18:36.888Z,1006.21
2023-02-24T12:20:36.640Z,1006.21
2023-02-24T12:22:35.274Z,1006.04
2023-02-24T12:24:35.804Z,1006.04
2023-02-24T12:26:35.380Z,1006.14
2023-02-24T12:28:35.743Z,1006.14
2023-02-24T12:30:37.557Z,1006.17
2023-02-24T12:32:36.598Z,1006.17
2023-02-24T12:34:35.227Z,1006.11
2023-02-24T12:36:35.801Z,1006.11
2023-02-24T12:38:35.446Z,1006.05
2023-02-24T12:40:36.053Z,1006.05
2023-02-24T12:42:35.449Z,1006.1
2023-02-24T12:44:35.904Z,1006.1
2023-02-24T12:46:35.650Z,1006.04
2023-02-24T12:48:35.794Z,1006.04
2023-02-24T12:50:35.159Z,1005.92
2023-02-24T12:52:35.378Z,1005.92
2023-02-24T12:54:36.046Z,1005.93
2023-02-24T12:56:35.372Z,1005.93
2023-02-24T12:58:36.003Z,1005.89
2023-02-24T13:00:39.213Z,1005.89
2023-02-24T13:02:36.224Z,1005.93
2023-02-24T13:04:35.231Z,1005.93
2023-02-24T13:06:35.722Z,1005.83
2023-02-24T13:08:35.432Z,1005.83
2023-02-24T13:10:35.808Z,1005.89
2023-02-24T13:12:35.209Z,1005.89
2023-02-24T13:14:35.674Z,1005.68
2023-02-24T13:16:35.594Z,1005.68
2023-02-24T13:18:35.855Z,1005.7
2023-02-24T13:20:35.236Z,1005.7
2023-02-24T13:22:35.783Z,1005.75
2023-02-24T13:24:35.578Z,1005.75
2023-02-24T13:26:35.916Z,1005.77
2023-02-24T13:28:35.219Z,1005.77
2023-02-24T13:30:35.925Z,1005.63
2023-02-24T13:32:35.832Z,1005.63
2023-02-24T13:34:35.687Z,1005.74
2023-02-24T13:36:35.255Z,1005.74
2023-02-24T13:38:35.761Z,1005.63
2023-02-24T13:40:35.598Z,1005.63
2023-02-24T13:42:35.703Z,1005.59
2023-02-24T13:44:35.283Z,1005.59
2023-02-24T13:46:35.949Z,1005.6
2023-02-24T13:48:36.838Z,1005.6
2023-02-24T13:50:35.819Z,1005.77
2023-02-24T13:52:35.274Z,1005.77
2023-02-24T13:54:35.762Z,1005.61
2023-02-24T13:56:35.325Z,1005.61
2023-02-24T13:58:35.611Z,1005.54
2023-02-24T14:00:41.159Z,1005.54
2023-02-24T14:02:35.804Z,1005.58
2023-02-24T14:04:35.205Z,1005.58
2023-02-24T14:06:35.872Z,1005.55
2023-02-24T14:08:36.081Z,1005.55
2023-02-24T14:10:35.929Z,1005.59
2023-02-24T14:12:36.004Z,1005.59
2023-02-24T14:14:35.316Z,1005.46
2023-02-24T14:16:37.426Z,1005.46
2023-02-24T14:18:35.349Z,1005.62
2023-02-24T14:20:35.797Z,1005.62
2023-02-24T14:22:35.833Z,1005.61
2023-02-24T14:24:35.878Z,1005.61
2023-02-24T14:26:35.421Z,1005.63
2023-02-24T14:28:35.748Z,1005.63
2023-02-24T14:30:35.424Z,1005.54
2023-02-24T14:32:36.457Z,1005.54
2023-02-24T14:34:36.107Z,1005.58
2023-02-24T14:36:36.373Z,1005.58
2023-02-24T14:38:36.376Z,1005.61
2023-02-24T14:40:35.719Z,1005.61
2023-02-24T14:42:35.020Z,1005.62
2023-02-24T14:44:36.072Z,1005.62
2023-02-24T14:46:37.078Z,1005.59
2023-02-24T14:48:35.503Z,1005.59
2023-02-24T14:50:36.160Z,1005.57
2023-02-24T14:52:35.825Z,1005.57
2023-02-24T14:54:35.984Z,1005.48
2023-02-24T14:56:36.169Z,1005.48
2023-02-24T14:58:35.726Z,1005.47
2023-02-24T15:00:38.564Z,1005.47
2023-02-24T15:02:35.236Z,1005.57
2023-02-24T15:04:35.717Z,1005.57
2023-02-24T15:06:35.886Z,1005.48
2023-02-24T15:08:36.043Z,1005.48
2023-02-24T15:10:35.135Z,1005.61
2023-02-24T15:12:35.561Z,1005.61
2023-02-24T15:14:35.358Z,1005.62
2023-02-24T15:16:36.975Z,1005.62
2023-02-24T15:18:35.295Z,1005.54
2023-02-24T15:20:35.763Z,1005.54
2023-02-24T15:22:35.327Z,1005.56
2023-02-24T15:24:35.839Z,1005.56
2023-02-24T15:26:35.260Z,1005.48
2023-02-24T15:28:35.927Z,1005.48
2023-02-24T15:30:35.611Z,1005.56
2023-02-24T15:32:36.875Z,1005.56
2023-02-24T15:34:35.483Z,1005.45
2023-02-24T15:36:36.240Z,1005.41
2023-02-24T15:38:35.462Z,1005.41
2023-02-24T15:40:36.028Z,1005.41
2023-02-24T15:42:35.625Z,1005.41
2023-02-24T15:44:36.136Z,1005.53
2023-02-24T15:46:36.328Z,1005.53
2023-02-24T15:48:35.826Z,1005.37
2023-02-24T15:50:35.574Z,1005.37
2023-02-24T15:52:35.901Z,1005.43
2023-02-24T15:54:35.396Z,1005.43
2023-02-24T15:56:36.026Z,1005.45
2023-02-24T15:58:35.386Z,1005.45
2023-02-24T16:00:39.440Z,1005.3
2023-02-24T16:02:35.312Z,1005.3
2023-02-24T16:04:36.092Z,1005.27
2023-02-24T16:06:35.475Z,1005.27
2023-02-24T16:08:35.747Z,1005.32
2023-02-24T16:10:35.285Z,1005.32
2023-02-24T16:12:35.646Z,1005.41
2023-02-24T16:14:35.228Z,1005.41
2023-02-24T16:16:36.494Z,1005.5
2023-02-24T16:18:36.004Z,1005.5
2023-02-24T16:20:35.846Z,1005.59
2023-02-24T16:22:35.220Z,1005.59
2023-02-24T16:24:35.636Z,1005.48
2023-02-24T16:26:36.195Z,1005.48
2023-02-24T16:28:35.308Z,1005.55
2023-02-24T16:30:36.128Z,1005.55
2023-02-24T16:32:36.654Z,1005.68
2023-02-24T16:34:36.118Z,1005.68
2023-02-24T16:36:35.806Z,1005.59
2023-02-24T16:38:35.894Z,1005.59
2023-02-24T16:40:35.555Z,1005.56
2023-02-24T16:42:35.804Z,1005.56
2023-02-24T16:44:35.403Z,1005.51
2023-02-24T16:46:36.700Z,1005.51
2023-02-24T16:48:36.477Z,1005.59
2023-02-24T16:50:35.648Z,1005.59
2023-02-24T16:52:35.386Z,1005.75
2023-02-24T16:54:35.649Z,1005.75
2023-02-24T16:56:35.640Z,1005.66
2023-02-24T16:58:35.786Z,1005.66
2023-02-24T17:00:39.158Z,1005.7
2023-02-24T17:02:35.620Z,1005.7
2023-02-24T17:04:36.549Z,1005.68
2023-02-24T17:06:37.066Z,1005.68
2023-02-24T17:08:35.208Z,1005.68
2023-02-24T17:10:35.885Z,1005.68
2023-02-24T17:12:35.755Z,1005.9
2023-02-24T17:14:36.017Z,1005.9
2023-02-24T17:16:36.100Z,1005.72
2023-02-24T17:18:35.652Z,1005.72
2023-02-24T17:20:35.349Z,1005.78
2023-02-24T17:22:37.108Z,1005.78
2023-02-24T17:24:35.298Z,1005.78
2023-02-24T17:26:36.168Z,1005.78
2023-02-24T17:28:35.623Z,1005.85
2023-02-24T17:30:36.187Z,1005.85
2023-02-24T17:32:36.286Z,1005.83
2023-02-24T17:34:35.733Z,1005.83
2023-02-24T17:36:36.066Z,1005.88
2023-02-24T17:38:35.402Z,1005.88
2023-02-24T17:40:37.822Z,1006.02
2023-02-24T17:42:35.512Z,1006.02
2023-02-24T17:44:36.124Z,1006.05
2023-02-24T17:46:36.559Z,1006.05
2023-02-24T17:48:35.148Z,1005.92
2023-02-24T17:50:36.303Z,1005.92
2023-02-24T17:52:39.823Z,1006.17
2023-02-24T17:54:35.622Z,1006.17
2023-02-24T17:56:37.391Z,1006.12
2023-02-24T17:58:35.707Z,1006.12
2023-02-24T18:00:38.611Z,1006.1
2023-02-24T18:02:36.270Z,1006.1
2023-02-24T18:04:35.240Z,1006.16
2023-02-24T18:06:36.136Z,1006.16
2023-02-24T18:08:37.195Z,1006.18
2023-02-24T18:10:35.848Z,1006.18
2023-02-24T18:12:35.209Z,1006.16
2023-02-24T18:14:35.574Z,1006.16
2023-02-24T18:16:37.122Z,1006.27
2023-02-24T18:18:35.442Z,1006.27
2023-02-24T18:20:35.819Z,1006.36
2023-02-24T18:22:35.431Z,1006.36
2023-02-24T18:24:35.647Z,1006.51
2023-02-24T18:26:35.959Z,1006.51
2023-02-24T18:28:35.560Z,1006.42
2023-02-24T18:30:36.175Z,1006.42
2023-02-24T18:32:36.934Z,1006.4
2023-02-24T18:34:35.297Z,1006.4
2023-02-24T18:36:35.723Z,1006.37
2023-02-24T18:38:35.184Z,1006.37
2023-02-24T18:40:35.736Z,1006.41
2023-02-24T18:42:36.039Z,1006.41
2023-02-24T18:44:35.437Z,1006.42
2023-02-24T18:46:36.910Z,1006.42
2023-02-24T18:48:35.241Z,1006.44
2023-02-24T18:50:35.799Z,1006.44
2023-02-24T18:52:35.180Z,1006.54
2023-02-24T18:54:35.624Z,1006.54
2023-02-24T18:56:35.745Z,1006.51
2023-02-24T18:58:35.844Z,1006.51
2023-02-24T19:00:39.282Z,1006.56
2023-02-24T19:02:36.031Z,1006.56
2023-02-24T19:04:35.228Z,1006.67
2023-02-24T19:06:36.110Z,1006.7
2023-02-24T19:08:35.267Z,1006.7
2023-02-24T19:10:35.720Z,1006.61
2023-02-24T19:12:36.165Z,1006.61
2023-02-24T19:14:35.601Z,1006.57
2023-02-24T19:16:37.093Z,1006.57
2023-02-24T19:18:35.381Z,1006.59
2023-02-24T19:20:35.904Z,1006.59
2023-02-24T19:22:35.281Z,1006.55
2023-02-24T19:24:35.790Z,1006.55
2023-02-24T19:26:36.100Z,1006.5
2023-02-24T19:28:36.034Z,1006.5
2023-02-24T19:30:35.619Z,1006.63
2023-02-24T19:32:36.004Z,1006.63
2023-02-24T19:34:35.644Z,1006.63
2023-02-24T19:36:36.023Z,1006.63
2023-02-24T19:38:35.609Z,1006.67
2023-02-24T19:40:35.224Z,1006.67
2023-02-24T19:42:35.799Z,1006.65
2023-02-24T19:44:35.406Z,1006.65
2023-02-24T19:46:36.672Z,1006.65
2023-02-24T19:48:35.682Z,1006.65
2023-02-24T19:50:35.283Z,1006.68
2023-02-24T19:52:35.803Z,1006.68
2023-02-24T19:54:35.285Z,1006.8
2023-02-24T19:56:36.076Z,1006.8
2023-02-24T19:58:35.139Z,1006.82
2023-02-24T20:00:38.570Z,1006.82
2023-02-24T20:02:35.803Z,1006.91
2023-02-24T20:04:35.554Z,1006.91
2023-02-24T20:06:36.271Z,1006.92
2023-02-24T20:08:35.389Z,1006.92
2023-02-24T20:10:35.945Z,1006.83
2023-02-24T20:12:35.489Z,1006.83
2023-02-24T20:14:36.024Z,1006.89
2023-02-24T20:16:36.052Z,1006.89
2023-02-24T20:18:35.820Z,1006.87
2023-02-24T20:20:35.328Z,1006.87
2023-02-24T20:22:35.979Z,1006.93
2023-02-24T20:24:36.566Z,1006.93
2023-02-24T20:26:36.312Z,1007.05
2023-02-24T20:28:35.474Z,1007.05
2023-02-24T20:30:35.952Z,1007.1
2023-02-24T20:32:35.977Z,1007.1
2023-02-24T20:34:35.854Z,1007.2
2023-02-24T20:36:36.217Z,1007.2
2023-02-24T20:38:35.844Z,1007.21
2023-02-24T20:40:35.405Z,1007.21
2023-02-24T20:42:35.649Z,1007.15
2023-02-24T20:44:35.245Z,1007.15
2023-02-24T20:46:36.883Z,1007.19
2023-02-24T20:48:35.241Z,1007.19
2023-02-24T20:50:35.787Z,1007.15
2023-02-24T20:52:35.164Z,1007.15
2023-02-24T20:54:35.569Z,1007.17
2023-02-24T20:56:41.694Z,1007.17
2023-02-24T20:58:35.786Z,1007.09
2023-02-24T21:00:40.603Z,1007.09
2023-02-24T21:02:35.584Z,1007.16
2023-02-24T21:04:36.101Z,1007.16
2023-02-24T21:06:43.841Z,1007.28
2023-02-24T21:08:35.694Z,1007.28
2023-02-24T21:10:35.396Z,1007.21
2023-02-24T21:12:35.784Z,1007.21
2023-02-24T21:14:35.243Z,1007.29
2023-02-24T21:16:36.507Z,1007.29
2023-02-24T21:18:35.216Z,1007.16
2023-02-24T21:20:35.769Z,1007.16
2023-02-24T21:22:35.110Z,1007.21
2023-02-24T21:24:35.652Z,1007.21
2023-02-24T21:26:35.556Z,1007.33
2023-02-24T21:28:35.747Z,1007.33
2023-02-24T21:30:35.575Z,1007.44
2023-02-24T21:32:36.077Z,1007.44
2023-02-24T21:34:36.099Z,1007.48
2023-02-24T21:36:36.115Z,1007.48
2023-02-24T21:38:36.037Z,1007.4
2023-02-24T21:40:35.690Z,1007.4
2023-02-24T21:42:35.270Z,1007.42
2023-02-24T21:44:35.806Z,1007.42
2023-02-24T21:46:36.231Z,1007.4
2023-02-24T21:48:35.673Z,1007.4
2023-02-24T21:50:35.281Z,1007.44
2023-02-24T21:52:35.674Z,1007.44
2023-02-24T21:54:35.247Z,1007.57
2023-02-24T21:56:36.096Z,1007.57
2023-02-24T21:58:35.358Z,1007.42
2023-02-24T22:00:39.213Z,1007.42
2023-02-24T22:02:36.057Z,1007.43
2023-02-24T22:04:35.465Z,1007.43
2023-02-24T22:06:35.504Z,1007.44
2023-02-24T22:08:35.665Z,1007.44
2023-02-24T22:10:35.314Z,1007.4
2023-02-24T22:12:35.793Z,1007.4
2023-02-24T22:14:35.380Z,1007.55
2023-02-24T22:16:36.936Z,1007.55
2023-02-24T22:18:35.546Z,1007.63
2023-02-24T22:20:36.012Z,1007.63
2023-02-24T22:22:35.457Z,1007.68
2023-02-24T22:24:35.884Z,1007.68
2023-02-24T22:26:35.848Z,1007.65
2023-02-24T22:28:36.038Z,1007.5
2023-02-24T22:30:35.546Z,1007.5
2023-02-24T22:32:36.715Z,1007.55
2023-02-24T22:34:35.380Z,1007.55
2023-02-24T22:36:36.190Z,1007.44
2023-02-24T22:38:35.541Z,1007.44
2023-02-24T22:40:36.171Z,1007.35
2023-02-24T22:42:35.669Z,1007.35
2023-02-24T22:44:35.242Z,1007.51
2023-02-24T22:46:36.619Z,1007.51
2023-02-24T22:48:37.966Z,1007.55
2023-02-24T22:50:35.866Z,1007.55
2023-02-24T22:52:35.248Z,1007.56
2023-02-24T22:54:35.851Z,1007.56
2023-02-24T22:56:35.940Z,1007.51
2023-02-24T22:58:35.831Z,1007.51
2023-02-24T23:00:36.761Z,1007.47
2023-02-24T23:02:35.690Z,1007.47
2023-02-24T23:04:35.495Z,1007.71
2023-02-24T23:06:36.244Z,1007.71
2023-02-24T23:08:35.349Z,1007.67
2023-02-24T23:10:35.924Z,1007.67
2023-02-24T23:12:35.491Z,1007.6
2023-02-24T23:14:36.047Z,1007.6
2023-02-24T23:16:36.106Z,1007.51
2023-02-24T23:18:35.856Z,1007.51
2023-02-24T23:20:35.548Z,1007.74
2023-02-24T23:22:35.050Z,1007.74
2023-02-24T23:24:35.712Z,1007.81
2023-02-24T23:26:36.392Z,1007.81
2023-02-24T23:28:35.694Z,1007.72
2023-02-24T23:30:35.436Z,1007.72
2023-02-24T23:32:36.787Z,1007.65
2023-02-24T23:34:35.606Z,1007.65
2023-02-24T23:36:35.685Z,1007.76
2023-02-24T23:38:35.623Z,1007.76
2023-02-24T23:40:48.061Z,1007.71
2023-02-24T23:42:35.816Z,1007.71
2023-02-24T23:44:35.376Z,1007.71
2023-02-24T23:46:36.825Z,1007.71
2023-02-24T23:48:35.302Z,1007.89
2023-02-24T23:50:35.946Z,1007.89
2023-02-24T23:52:35.445Z,1007.8
2023-02-24T23:54:35.046Z,1007.8
2023-02-24T23:56:35.920Z,1007.87
2023-02-24T23:58:35.250Z,1007.87
